Airport Weather Around the Area


KLVN - Mpls/Airlake, Lakeville, MN, USA
Distance from station: S 5mi, 8km
Updated: Sat, 27-May-2017 4:29am CDT
Clear
Clear
 Wind from calm
Wind: Calm
Temperature: 52°F , 11°C
Dew Point: 46°F , 8°C
Humidity: 82%
Barometer: 29.88 inHg , 1011.9 hPa
Clouds: Clear
Visibility: 10 miles , 16 km
2017/05/27 09:29 KLVN 270929Z AUTO 00000KT 10SM CLR 11/08 A2988 RMK AO2
KMSP - MSP International, Minneapolis, MN, USA
Distance from station: N 13mi, 20km
Updated: Sat, 27-May-2017 4:53am CDT
Clear
Clear
 Wind from calm
Wind: Calm
Temperature: 55°F , 13°C
Dew Point: 46°F , 8°C
Humidity: 72%
Barometer: 29.87 inHg , 1011.5 hPa
Clouds: Clear
Visibility: 10 miles , 16 km
2017/05/27 09:53 KMSP 270953Z 00000KT 10SM CLR 13/08 A2987 RMK AO2 SLP112 T01330083
 
KSGS - South St Paul/Fleming Field, So. St. Paul, MN, USA
Distance from station: NE 14mi, 22km
Updated: Sat, 27-May-2017 4:34am CDT
Clear
Clear
 Wind from calm
Wind: Calm
Temperature: 55°F , 13°C
Dew Point: 46°F , 8°C
Humidity: 72%
Barometer: 29.86 inHg , 1011.2 hPa
Clouds: Clear
Visibility: 10 miles , 16 km
2017/05/27 09:34 KSGS 270934Z AUTO 00000KT 10SM CLR 13/08 A2986 RMK AO2 T01280083
KFCM - Mpls/Flying Cloud, Eden Prairie, MN, USA
Distance from station: NW 15mi, 24km
Updated: Sat, 27-May-2017 4:53am CDT
Clear
Clear
 Wind from calm
Wind: Calm
Temperature: 54°F , 12°C
Dew Point: 48°F , 9°C
Humidity: 82%
Barometer: 29.86 inHg , 1011.2 hPa
Clouds: Clear
Visibility: 10 miles , 16 km
2017/05/27 09:53 KFCM 270953Z AUTO 00000KT 10SM CLR 12/09 A2986 RMK AO2 SLP109 T01220089
 
KSTP - St. Paul Downtown, St. Paul, MN, USA
Distance from station: NNE 18mi, 29km
Updated: Sat, 27-May-2017 4:53am CDT
Clear
Clear
 Wind from calm
Wind: Calm
Temperature: 52°F , 11°C
Dew Point: 50°F , 10°C
Humidity: 94%
Barometer: 29.87 inHg , 1011.5 hPa
Clouds: Clear
Visibility: 10 miles , 16 km
2017/05/27 09:53 KSTP 270953Z AUTO 00000KT 10SM CLR 11/10 A2987 RMK AO2 SLP112 T01110100
KSYN - Stanton, Minnesota, USA
Distance from station: SE 18mi, 29km
Updated: Sat, 27-May-2017 4:34am CDT
Clear
Clear
 Wind from calm
Wind: Calm
Temperature: 52°F , 11°C
Dew Point: 48°F , 9°C
Humidity: 88%
Barometer: 29.86 inHg , 1011.2 hPa
Clouds: Clear
Visibility: 10 miles , 16 km
2017/05/27 09:34 KSYN 270934Z AUTO 00000KT 10SM CLR 11/09 A2986 RMK AO2 T01060086
 
KMIC - Mlps/Crystal, MN, USA
Distance from station: NNW 26mi, 42km
Updated: Sat, 27-May-2017 4:53am CDT
Clear
Clear
 Wind from calm
Wind: Calm
Temperature: 50°F , 10°C
Dew Point: 45°F , 7°C
Humidity: 82%
Barometer: 29.86 inHg , 1011.2 hPa
Clouds: Clear
Visibility: 10 miles , 16 km
2017/05/27 09:53 KMIC 270953Z AUTO 00000KT 10SM CLR 10/07 A2986 RMK AO2 SLP108 T01000067 TSNO
KFBL - Faribault Municipal, MN, USA
Distance from station: S 27mi, 43km
Updated: Sat, 27-May-2017 4:34am CDT
Partly Cloudy
Partly Cloudy
 Wind from calm
Wind: Calm
Temperature: 50°F , 10°C
Dew Point: 48°F , 9°C
Humidity: 94%
Barometer: 29.89 inHg , 1012.2 hPa
Clouds: Partly Cloudy
Visibility: 10 miles , 16 km
Cloud details: Partly Cloudy 7000 ft
2017/05/27 09:34 KFBL 270934Z AUTO 00000KT 10SM SCT070 10/09 A2989 RMK AO2
 
K21D - Lake Elmo, MN, USA
Distance from station: NE 27mi, 44km
Updated: Sat, 27-May-2017 4:32am CDT
Clear
Clear
 Wind from calm
Wind: Calm
Temperature: 48°F , 9°C
Dew Point: 46°F , 8°C
Humidity: 94%
Barometer: 29.87 inHg , 1011.5 hPa
Clouds: Clear
Visibility: 10 miles , 16 km
2017/05/27 09:32 K21D 270932Z AUTO 00000KT 10SM CLR 09/08 A2987 RMK AO2
KANE - Anoka Co./Blaine, MN, USA
Distance from station: 0 30mi, 48km
Updated: Sat, 27-May-2017 4:34am CDT
Clear
Clear
 Wind from calm
Wind: Calm
Temperature: 52°F , 11°C
Dew Point: 48°F , 9°C
Humidity: 88%
Barometer: 29.86 inHg , 1011.2 hPa
Clouds: Clear
Visibility: 10 miles , 16 km
2017/05/27 09:34 KANE 270934Z AUTO 00000KT 10SM CLR 11/09 A2986 RMK AO2
 
KRGK - Red Wing, MN, USA
Distance from station: ESE 37mi, 60km
Updated: Sat, 27-May-2017 4:35am CDT
Clear
Clear
 Wind from calm
Wind: Calm
Temperature: 52°F , 11°C
Dew Point: 48°F , 9°C
Humidity: 88%
Barometer: 29.86 inHg , 1011.2 hPa
Clouds: Clear
Visibility: 10 miles , 16 km
2017/05/27 09:35 KRGK 270935Z AUTO 00000KT 10SM CLR 11/09 A2986 RMK AO2